Time;durP1;ratioP1;P1;durP2;ratioP2;P2;SDS_P1;SDS_P2;PMS_P1;PMS_P2;Temp;Humidity;BMP_temperature;BMP_pressure;BME280_temperature;BME280_humidity;BME280_pressure;Samples;Min_cycle;Max_cycle;Signal;HPM_P1;HPM_P2
2021/06/01 00:00:56;;;;;;;;;;;;;;;9.46;61.55;98495.38;1700151;82;25389;-85
2021/06/01 00:03:21;;;;;;;;;;;;;;;9.40;61.59;98492.70;1691579;83;20217;-85
2021/06/01 00:05:47;;;;;;;;;;;;;;;9.33;61.63;98494.52;1687490;83;20400;-85
2021/06/01 00:08:16;;;;;;;;;;;;;;;9.26;61.68;98499.28;1692793;83;25549;-85
2021/06/01 00:10:42;;;;;;;;;;;;;;;9.22;61.72;98499.08;1713067;82;21978;-85
2021/06/01 00:13:08;;;;;;;;;;;;;;;9.19;61.78;98500.13;1721807;82;25934;-85
2021/06/01 00:15:34;;;;;;;;;;;;;;;9.18;61.83;98497.61;1719295;82;24515;-89
2021/06/01 00:18:00;;;;;;;;;;;;;;;9.16;61.93;98496.39;1721816;82;20278;-88
2021/06/01 00:20:28;;;;;;;;;;;;;;;9.16;61.99;98502.91;1728915;82;25774;-88
2021/06/01 00:22:54;;;;;;;;;;;;;;;9.12;62.03;98497.98;1719716;82;21987;-88
2021/06/01 00:25:27;;;;;;;;;;;;;;;9.04;62.12;98498.95;1720298;82;23606;-89
2021/06/01 00:27:53;;;;;;;;;;;;;;;8.95;62.17;98499.50;1720912;82;24159;-89
2021/06/01 00:30:20;;;;;;;;;;;;;;;8.83;62.24;98510.27;1711353;82;21166;-88
2021/06/01 00:32:47;;;;;;;;;;;;;;;8.86;62.34;98506.61;1727290;82;25688;-89
2021/06/01 00:35:26;;;;;;;;;;;;;;;8.90;62.43;98507.63;1730490;81;21374;-89
2021/06/01 00:37:52;;;;;;;;;;;;;;;8.93;62.54;98500.93;1720745;82;26019;-89
2021/06/01 00:40:18;;;;;;;;;;;;;;;8.98;62.63;98508.00;1735165;82;21504;-88
2021/06/01 00:42:55;;;;;;;;;;;;;;;9.02;62.74;98504.72;1713071;82;20348;-89
2021/06/01 00:45:27;;;;;;;;;;;;;;;9.02;62.82;98501.66;1730141;82;24449;-90
2021/06/01 00:47:53;;;;;;;;;;;;;;;9.03;62.88;98506.41;1733603;82;22004;-89
2021/06/01 00:50:21;;;;;;;;;;;;;;;9.05;62.95;98504.55;1722224;82;25930;-89
2021/06/01 00:52:50;;;;;;;;;;;;;;;9.06;63.01;98507.05;1717977;82;23836;-89
2021/06/01 00:55:26;;;;;;;;;;;;;;;9.05;63.06;98508.47;1721346;82;20299;-89
2021/06/01 00:57:55;;;;;;;;;;;;;;;9.04;63.12;98509.39;1699148;83;25730;-89
2021/06/01 01:00:39;;;;;;;;;;;;;;;9.01;63.19;98505.66;1708560;82;22716;-89
2021/06/01 01:02:50;;;;;;;;;;;;;;;8.99;63.23;98508.38;1737520;80;26150;-85
2021/06/01 01:05:25;;;;;;;;;;;;;;;8.97;63.29;98508.94;1727385;82;25097;-86
2021/06/01 01:08:07;;;;;;;;;;;;;;;8.99;63.35;98504.93;1723895;82;20318;-86
2021/06/01 01:10:32;;;;;;;;;;;;;;;8.97;63.41;98502.87;1721410;82;25013;-86
2021/06/01 01:13:06;;;;;;;;;;;;;;;9.00;63.49;98510.03;1720596;82;21822;-85
2021/06/01 01:15:38;;;;;;;;;;;;;;;9.03;63.56;98505.94;1721634;82;25669;-85
2021/06/01 01:18:06;;;;;;;;;;;;;;;9.04;63.63;98501.56;1718489;82;24439;-85
2021/06/01 01:20:40;;;;;;;;;;;;;;;8.99;63.69;98501.86;1710167;83;20395;-89
2021/06/01 01:23:08;;;;;;;;;;;;;;;8.92;63.75;98504.93;1700902;83;24506;-89
2021/06/01 01:25:53;;;;;;;;;;;;;;;8.90;63.80;98507.63;1708009;83;22072;-89
2021/06/01 01:28:42;;;;;;;;;;;;;;;8.84;63.86;98502.78;1709635;83;25960;-89
2021/06/01 01:34:09;;;;;;;;;;;;;;;8.75;64.00;98503.36;1709431;83;20342;-88
2021/06/01 01:36:36;;;;;;;;;;;;;;;8.72;64.12;98504.86;1712027;83;24937;-85
2021/06/01 01:39:03;;;;;;;;;;;;;;;8.60;64.15;98505.14;1707337;83;22054;-85
2021/06/01 01:41:30;;;;;;;;;;;;;;;8.52;64.21;98510.43;1712046;83;25935;-85
2021/06/01 01:44:00;;;;;;;;;;;;;;;8.46;64.27;98502.51;1710208;83;24417;-86
2021/06/01 01:49:13;;;;;;;;;;;;;;;8.59;64.45;98500.84;1710198;83;24988;-85
2021/06/01 01:51:40;;;;;;;;;;;;;;;8.65;64.52;98500.48;1704142;83;22177;-85
2021/06/01 01:54:17;;;;;;;;;;;;;;;8.67;64.58;98495.17;1710041;83;26068;-86
2021/06/01 01:56:49;;;;;;;;;;;;;;;8.66;64.64;98499.55;1710988;83;24521;-85
2021/06/01 01:59:22;;;;;;;;;;;;;;;8.62;64.66;98501.95;1707314;83;20220;-86
2021/06/01 02:01:49;;;;;;;;;;;;;;;8.59;64.69;98490.88;1700960;82;25176;-85
2021/06/01 02:04:23;;;;;;;;;;;;;;;8.59;64.74;98491.72;1694349;84;22031;-89
2021/06/01 02:06:51;;;;;;;;;;;;;;;8.59;64.77;98493.02;1690521;84;26746;-89
2021/06/01 02:09:18;;;;;;;;;;;;;;;8.50;64.79;98493.59;1693292;84;24431;-89
2021/06/01 02:11:44;;;;;;;;;;;;;;;8.42;64.82;98491.05;1697813;84;20328;-90
2021/06/01 02:14:17;;;;;;;;;;;;;;;8.37;64.86;98494.78;1693726;83;24499;-90
2021/06/01 02:16:45;;;;;;;;;;;;;;;8.30;64.91;98495.23;1693630;84;21665;-89
2021/06/01 02:19:13;;;;;;;;;;;;;;;8.13;64.93;98492.78;1693159;83;25995;-86
2021/06/01 02:24:24;;;;;;;;;;;;;;;8.02;65.02;98499.08;1693703;84;20532;-86
2021/06/01 02:27:02;;;;;;;;;;;;;;;8.03;65.13;98492.45;1693311;84;25085;-86
2021/06/01 02:29:29;;;;;;;;;;;;;;;8.03;65.20;98496.37;1693242;84;21996;-85
2021/06/01 02:31:56;;;;;;;;;;;;;;;8.08;65.30;98494.33;1695299;84;26121;-86
2021/06/01 02:34:24;;;;;;;;;;;;;;;8.07;65.36;98495.28;1694371;84;24999;-86
2021/06/01 02:36:52;;;;;;;;;;;;;;;7.99;65.40;98494.88;1693328;84;20234;-86
2021/06/01 02:39:27;;;;;;;;;;;;;;;7.97;65.46;98498.86;1695025;84;25006;-86
2021/06/01 02:41:54;;;;;;;;;;;;;;;7.98;65.51;98490.13;1695465;84;22044;-86
2021/06/01 02:44:21;;;;;;;;;;;;;;;7.97;65.55;98500.17;1696298;83;26109;-86
2021/06/01 02:46:48;;;;;;;;;;;;;;;7.94;65.60;98494.30;1693778;84;24445;-85
2021/06/01 02:49:16;;;;;;;;;;;;;;;7.85;65.68;98495.69;1692880;84;20553;-85
2021/06/01 02:51:43;;;;;;;;;;;;;;;7.70;65.70;98493.94;1665835;84;25782;-85
2021/06/01 02:54:10;;;;;;;;;;;;;;;7.58;65.75;98497.27;1695491;84;21952;-89
2021/06/01 02:56:37;;;;;;;;;;;;;;;7.47;65.79;98489.23;1693773;84;26120;-90
2021/06/01 02:59:06;;;;;;;;;;;;;;;7.50;65.90;98495.09;1692117;84;24430;-90
2021/06/01 03:01:32;;;;;;;;;;;;;;;7.62;66.00;98489.66;1696138;83;20434;-87
2021/06/01 03:03:58;;;;;;;;;;;;;;;7.70;66.13;98492.64;1701564;83;24471;-86
2021/06/01 03:06:25;;;;;;;;;;;;;;;7.73;66.20;98487.73;1705758;83;20371;-85
2021/06/01 03:08:52;;;;;;;;;;;;;;;7.70;66.24;98484.83;1702406;83;26016;-86
2021/06/01 03:11:19;;;;;;;;;;;;;;;7.68;66.28;98489.31;1702112;83;24441;-85
2021/06/01 03:13:52;;;;;;;;;;;;;;;7.66;66.33;98487.70;1697336;83;20557;-85
2021/06/01 03:16:20;;;;;;;;;;;;;;;7.66;66.38;98488.54;1705561;83;25061;-85
2021/06/01 03:18:48;;;;;;;;;;;;;;;7.66;66.43;98492.45;1700800;83;22093;-86
2021/06/01 03:21:17;;;;;;;;;;;;;;;7.67;66.50;98490.69;1709764;82;27377;-86
2021/06/01 03:23:46;;;;;;;;;;;;;;;7.65;66.56;98498.58;1699389;83;24442;-89
2021/06/01 03:26:22;;;;;;;;;;;;;;;7.62;66.66;98490.95;1703969;83;20578;-86
2021/06/01 03:28:50;;;;;;;;;;;;;;;7.62;66.72;98492.72;1698893;83;25435;-86
2021/06/01 03:31:17;;;;;;;;;;;;;;;7.65;66.81;98486.86;1703353;83;22000;-86
2021/06/01 03:33:44;;;;;;;;;;;;;;;7.70;66.90;98488.73;1700271;83;26079;-86
2021/06/01 03:36:10;;;;;;;;;;;;;;;7.81;66.98;98486.35;1700491;83;24513;-90
2021/06/01 03:38:37;;;;;;;;;;;;;;;7.92;67.11;98485.27;1705438;82;20232;-90
2021/06/01 03:41:05;;;;;;;;;;;;;;;7.97;67.18;98483.23;1697976;83;24991;-90
2021/06/01 03:43:32;;;;;;;;;;;;;;;8.02;67.26;98480.34;1697529;83;21478;-89
2021/06/01 03:46:00;;;;;;;;;;;;;;;8.02;67.27;98481.66;1698036;83;25991;-90
2021/06/01 03:48:33;;;;;;;;;;;;;;;7.99;67.29;98481.84;1702764;83;20328;-90
2021/06/01 03:50:59;;;;;;;;;;;;;;;7.94;67.34;98483.42;1699084;83;20293;-89
2021/06/01 03:53:28;;;;;;;;;;;;;;;7.91;67.34;98488.80;1702666;83;24945;-89
2021/06/01 03:55:59;;;;;;;;;;;;;;;7.88;67.36;98482.94;1721480;82;22583;-89
2021/06/01 03:58:25;;;;;;;;;;;;;;;7.87;67.41;98482.09;1693396;83;26008;-90
2021/06/01 04:00:51;;;;;;;;;;;;;;;7.90;67.45;98479.79;1691412;83;24397;-89
2021/06/01 04:03:19;;;;;;;;;;;;;;;7.97;67.54;98484.53;1684652;83;20317;-88
2021/06/01 04:05:53;;;;;;;;;;;;;;;8.08;67.63;98482.59;1682870;84;25812;-89
2021/06/01 04:08:19;;;;;;;;;;;;;;;8.22;67.73;98482.64;1686082;84;22392;-86
2021/06/01 04:10:45;;;;;;;;;;;;;;;8.36;67.83;98481.83;1683923;83;26627;-86
2021/06/01 04:13:13;;;;;;;;;;;;;;;8.50;67.91;98484.46;1683032;84;24435;-86
2021/06/01 04:15:39;;;;;;;;;;;;;;;8.66;67.99;98481.75;1684661;84;20288;-86
2021/06/01 04:18:05;;;;;;;;;;;;;;;8.84;68.10;98478.48;1685378;83;24948;-86
2021/06/01 04:20:31;;;;;;;;;;;;;;;9.00;68.16;98480.02;1690822;83;20323;-86
2021/06/01 04:22:57;;;;;;;;;;;;;;;9.14;68.21;98482.61;1684443;84;20912;-86
2021/06/01 04:25:23;;;;;;;;;;;;;;;9.30;68.28;98477.25;1680681;84;24397;-86
2021/06/01 04:27:51;;;;;;;;;;;;;;;9.37;68.28;98473.78;1697057;84;20258;-86
2021/06/01 04:30:18;;;;;;;;;;;;;;;9.46;68.26;98481.02;1682096;84;25175;-86
2021/06/01 04:32:44;;;;;;;;;;;;;;;9.52;68.24;98480.62;1685294;84;22098;-85
2021/06/01 04:35:10;;;;;;;;;;;;;;;9.61;68.24;98488.70;1685846;84;26731;-85
2021/06/01 04:37:37;;;;;;;;;;;;;;;9.68;68.24;98485.22;1691906;83;25045;-88
2021/06/01 04:40:03;;;;;;;;;;;;;;;9.72;68.19;98489.30;1685724;84;20303;-88
2021/06/01 04:42:29;;;;;;;;;;;;;;;9.73;68.15;98484.92;1688799;84;24990;-88
2021/06/01 04:44:57;;;;;;;;;;;;;;;9.75;68.10;98488.28;1688230;84;22677;-88
2021/06/01 04:47:22;;;;;;;;;;;;;;;9.80;68.09;98494.03;1681791;84;26630;-88
2021/06/01 04:49:49;;;;;;;;;;;;;;;9.83;68.07;98489.44;1688133;84;20225;-89
2021/06/01 04:52:15;;;;;;;;;;;;;;;9.85;68.03;98496.72;1683499;83;20279;-89
2021/06/01 04:54:41;;;;;;;;;;;;;;;9.87;68.02;98497.94;1684246;84;25060;-90
2021/06/01 04:57:07;;;;;;;;;;;;;;;9.90;68.00;98495.10;1682944;84;20815;-89
2021/06/01 04:59:35;;;;;;;;;;;;;;;9.96;68.00;98498.16;1682063;84;26144;-89
2021/06/01 05:02:01;;;;;;;;;;;;;;;10.03;67.98;98494.67;1687882;83;24438;-89
2021/06/01 05:04:27;;;;;;;;;;;;;;;10.11;67.98;98496.28;1672383;84;20361;-88
2021/06/01 05:06:57;;;;;;;;;;;;;;;10.17;67.96;98498.53;1705927;83;25006;-89
2021/06/01 05:09:26;;;;;;;;;;;;;;;10.21;67.93;98501.30;1700960;83;22295;-89
2021/06/01 05:11:52;;;;;;;;;;;;;;;10.25;67.90;98498.87;1702979;83;25855;-85
2021/06/01 05:14:27;;;;;;;;;;;;;;;10.30;67.91;98499.39;1701460;83;24554;-88
2021/06/01 05:16:53;;;;;;;;;;;;;;;10.32;67.87;98492.25;1706435;83;20213;-88
2021/06/01 05:19:23;;;;;;;;;;;;;;;10.37;67.87;98495.39;1703600;83;24922;-88
2021/06/01 05:21:52;;;;;;;;;;;;;;;10.45;67.87;98498.34;1669136;84;20205;-89
2021/06/01 05:24:22;;;;;;;;;;;;;;;10.55;67.86;98497.70;1704838;83;26505;-90
2021/06/01 05:26:48;;;;;;;;;;;;;;;10.63;67.86;98494.10;1705428;83;24475;-90
2021/06/01 05:29:14;;;;;;;;;;;;;;;10.74;67.87;98493.73;1698891;83;20376;-89
2021/06/01 05:31:51;;;;;;;;;;;;;;;10.86;67.90;98494.16;1695738;83;20245;-89
2021/06/01 05:34:13;;;;;;;;;;;;;;;10.94;67.90;98497.56;1694653;83;22012;-88
2021/06/01 05:36:40;;;;;;;;;;;;;;;11.03;67.89;98500.83;1700183;82;25961;-88
2021/06/01 05:39:07;;;;;;;;;;;;;;;11.10;67.85;98502.08;1702018;83;24431;-89
2021/06/01 05:41:33;;;;;;;;;;;;;;;11.15;67.78;98492.58;1703111;83;20515;-86
2021/06/01 05:43:59;;;;;;;;;;;;;;;11.21;67.70;98500.00;1703318;83;25228;-85
2021/06/01 05:46:28;;;;;;;;;;;;;;;11.27;67.67;98499.09;1701127;83;20855;-87
2021/06/01 05:48:54;;;;;;;;;;;;;;;11.37;67.64;98495.81;1702972;83;25944;-88
2021/06/01 05:51:25;;;;;;;;;;;;;;;11.44;67.58;98496.58;1701090;83;20335;-88
2021/06/01 05:53:52;;;;;;;;;;;;;;;11.53;67.57;98499.83;1706199;83;20263;-88
2021/06/01 05:56:20;;;;;;;;;;;;;;;11.59;67.53;98505.10;1699628;83;25690;-90
2021/06/01 05:58:46;;;;;;;;;;;;;;;11.64;67.51;98508.22;1698655;83;21919;-89
2021/06/01 06:01:12;;;;;;;;;;;;;;;11.66;67.42;98514.20;1704513;83;25950;-89
2021/06/01 06:03:39;;;;;;;;;;;;;;;11.65;67.33;98509.44;1697386;82;24493;-89
2021/06/01 06:06:11;;;;;;;;;;;;;;;11.64;67.23;98506.44;1689647;84;20278;-89
2021/06/01 06:08:33;;;;;;;;;;;;;;;11.64;67.09;98505.13;1693022;84;24962;-89
2021/06/01 06:10:59;;;;;;;;;;;;;;;11.64;66.97;98507.75;1695022;84;21969;-89
2021/06/01 06:13:25;;;;;;;;;;;;;;;11.65;66.89;98505.50;1693335;84;25938;-86
2021/06/01 06:15:52;;;;;;;;;;;;;;;11.66;66.79;98509.80;1695678;84;24376;-86
2021/06/01 06:18:19;;;;;;;;;;;;;;;11.67;66.67;98510.13;1691845;84;20340;-85
2021/06/01 06:20:45;;;;;;;;;;;;;;;11.69;66.61;98512.19;1690740;84;25255;-85
2021/06/01 06:23:12;;;;;;;;;;;;;;;11.75;66.59;98513.55;1692206;84;20318;-89
2021/06/01 06:25:41;;;;;;;;;;;;;;;11.78;66.54;98511.20;1693527;84;25383;-90
2021/06/01 06:28:13;;;;;;;;;;;;;;;11.83;66.50;98511.22;1693372;84;24486;-90
2021/06/01 06:30:39;;;;;;;;;;;;;;;11.92;66.51;98515.77;1695951;84;20290;-89
2021/06/01 06:33:08;;;;;;;;;;;;;;;12.03;66.50;98513.20;1694292;84;24986;-89
2021/06/01 06:35:34;;;;;;;;;;;;;;;12.13;66.50;98515.96;1693388;84;22714;-89
2021/06/01 06:38:00;;;;;;;;;;;;;;;12.19;66.48;98515.50;1690375;84;26126;-86
2021/06/01 06:40:26;;;;;;;;;;;;;;;12.28;66.48;98510.86;1693297;84;20282;-86
2021/06/01 06:42:52;;;;;;;;;;;;;;;12.35;66.47;98516.49;1694209;84;20712;-86
2021/06/01 06:45:30;;;;;;;;;;;;;;;12.41;66.48;98512.94;1683810;83;20264;-86
2021/06/01 06:47:58;;;;;;;;;;;;;;;12.43;66.43;98514.14;1693608;83;22763;-86
2021/06/01 06:50:24;;;;;;;;;;;;;;;12.41;66.36;98512.94;1674716;84;26787;-86
2021/06/01 06:52:52;;;;;;;;;;;;;;;12.44;66.30;98515.31;1688720;83;24681;-86
2021/06/01 06:55:18;;;;;;;;;;;;;;;12.51;66.28;98517.00;1693649;83;20287;-85
2021/06/01 06:57:44;;;;;;;;;;;;;;;12.55;66.20;98514.02;1687688;83;25125;-86
2021/06/01 07:00:12;;;;;;;;;;;;;;;12.73;66.17;98505.20;1696243;83;22069;-86
2021/06/01 07:02:40;;;;;;;;;;;;;;;12.84;66.16;98503.91;1689825;82;26004;-88
2021/06/01 07:05:06;;;;;;;;;;;;;;;12.92;66.09;98500.69;1706572;82;25132;-88
2021/06/01 07:07:32;;;;;;;;;;;;;;;13.05;66.06;98500.54;1719102;82;20273;-89
2021/06/01 07:10:04;;;;;;;;;;;;;;;13.17;66.00;98501.77;1690912;82;20596;-88
2021/06/01 07:12:36;;;;;;;;;;;;;;;13.18;65.88;98507.86;1714127;82;22060;-89
2021/06/01 07:15:10;;;;;;;;;;;;;;;13.16;65.71;98506.66;1718245;82;26125;-89
2021/06/01 07:17:38;;;;;;;;;;;;;;;13.17;65.56;98499.61;1708925;82;24446;-88
2021/06/01 07:20:06;;;;;;;;;;;;;;;13.21;65.43;98507.59;1715566;82;20270;-89
2021/06/01 07:22:34;;;;;;;;;;;;;;;13.34;65.36;98505.68;1700189;82;25076;-89
2021/06/01 07:25:04;;;;;;;;;;;;;;;13.37;65.24;98506.73;1708596;82;21918;-89
2021/06/01 07:27:31;;;;;;;;;;;;;;;13.37;65.16;98497.53;1713988;82;26484;-89
2021/06/01 07:29:57;;;;;;;;;;;;;;;13.42;65.06;98507.20;1711027;82;24377;-88
2021/06/01 07:32:23;;;;;;;;;;;;;;;13.52;64.98;98508.16;1709212;82;20267;-89
2021/06/01 07:34:49;;;;;;;;;;;;;;;13.70;64.93;98509.27;1713359;82;25012;-90
2021/06/01 07:37:16;;;;;;;;;;;;;;;13.80;64.83;98506.24;1709806;82;21812;-90
2021/06/01 07:39:43;;;;;;;;;;;;;;;13.88;64.66;98508.73;1717768;82;26094;-89
2021/06/01 07:42:10;;;;;;;;;;;;;;;13.98;64.50;98508.33;1712621;82;24399;-90
2021/06/01 07:44:38;;;;;;;;;;;;;;;14.08;64.41;98511.39;1707863;82;20254;-89
2021/06/01 07:47:04;;;;;;;;;;;;;;;14.02;64.15;98506.63;1713891;82;25290;-90
2021/06/01 07:49:30;;;;;;;;;;;;;;;14.12;64.04;98506.73;1713984;82;22061;-90
2021/06/01 07:51:56;;;;;;;;;;;;;;;14.28;64.00;98505.80;1709625;82;20955;-90
2021/06/01 07:54:22;;;;;;;;;;;;;;;14.43;64.01;98505.02;1710472;82;20313;-90
2021/06/01 07:56:48;;;;;;;;;;;;;;;14.53;63.98;98505.42;1705430;82;20269;-90
2021/06/01 07:59:16;;;;;;;;;;;;;;;14.59;63.91;98498.80;1689957;82;22068;-90
2021/06/01 08:01:43;;;;;;;;;;;;;;;14.81;63.87;98503.07;1704941;82;22075;-90
2021/06/01 08:04:09;;;;;;;;;;;;;;;14.91;63.77;98505.26;1715457;82;26024;-89
2021/06/01 08:06:39;;;;;;;;;;;;;;;15.05;63.64;98499.64;1712577;82;24364;-89
2021/06/01 08:09:06;;;;;;;;;;;;;;;15.11;63.42;98504.36;1709543;82;20203;-90
2021/06/01 08:11:34;;;;;;;;;;;;;;;15.12;63.12;98504.71;1713470;82;25101;-90
2021/06/01 08:14:08;;;;;;;;;;;;;;;15.21;62.97;98502.61;1696263;82;21032;-85
2021/06/01 08:16:34;;;;;;;;;;;;;;;15.34;62.86;98504.50;1705149;82;25981;-85
2021/06/01 08:19:13;;;;;;;;;;;;;;;15.38;62.74;98505.89;1715241;82;25164;-85
2021/06/01 08:21:48;;;;;;;;;;;;;;;15.47;62.48;98502.46;1687430;83;20208;-85
2021/06/01 08:24:06;;;;;;;;;;;;;;;15.61;62.26;98501.73;1717193;81;25925;-89
2021/06/01 08:26:32;;;;;;;;;;;;;;;15.74;62.04;98504.47;1704115;82;21982;-89
2021/06/01 08:28:58;;;;;;;;;;;;;;;15.89;61.85;98503.56;1714773;82;25889;-89
2021/06/01 08:31:24;;;;;;;;;;;;;;;16.01;61.61;98511.70;1703594;82;20337;-89
2021/06/01 08:33:56;;;;;;;;;;;;;;;16.09;61.35;98505.22;1714857;82;20762;-89
2021/06/01 08:36:23;;;;;;;;;;;;;;;16.18;61.11;98500.92;1715997;82;25151;-89
2021/06/01 08:38:53;;;;;;;;;;;;;;;16.28;60.92;98494.66;1712899;82;22769;-88
2021/06/01 08:41:19;;;;;;;;;;;;;;;16.39;60.61;98498.11;1711791;83;26056;-88
2021/06/01 08:43:48;;;;;;;;;;;;;;;16.35;59.88;98498.05;1737940;81;20501;-89
2021/06/01 08:46:16;;;;;;;;;;;;;;;16.41;59.44;98498.33;1686143;82;20251;-89
2021/06/01 08:48:46;;;;;;;;;;;;;;;16.56;59.03;98496.06;1687193;83;20964;-88
2021/06/01 08:51:20;;;;;;;;;;;;;;;16.62;58.63;98494.20;1710379;82;22898;-88
2021/06/01 08:53:49;;;;;;;;;;;;;;;16.83;58.41;98489.53;1711552;82;25988;-88
2021/06/01 08:56:18;;;;;;;;;;;;;;;16.97;58.06;98487.73;1711010;83;23939;-88
2021/06/01 08:58:45;;;;;;;;;;;;;;;17.08;57.67;98485.38;1714879;82;20330;-88
2021/06/01 09:01:11;;;;;;;;;;;;;;;17.24;57.35;98483.45;1708488;83;25038;-88
2021/06/01 09:03:39;;;;;;;;;;;;;;;17.49;57.13;98481.41;1711808;83;21955;-88
2021/06/01 09:21:04;;;;;;;;;;;;;;;18.10;54.81;98466.95;1711774;81;26025;-88
2021/06/01 09:22:38;;;;;;;;;;;;;;;18.28;54.60;98465.58;1711215;83;24457;-89
2021/06/01 09:25:06;;;;;;;;;;;;;;;18.36;54.11;98460.34;1712058;81;20211;-89
2021/06/01 09:27:42;;;;;;;;;;;;;;;18.40;53.70;98462.53;1711940;83;25775;-89
2021/06/01 09:30:15;;;;;;;;;;;;;;;18.46;53.25;98458.91;1710410;82;22023;-88
2021/06/01 09:32:43;;;;;;;;;;;;;;;18.42;52.55;98458.41;1706690;82;26713;-89
2021/06/01 09:35:10;;;;;;;;;;;;;;;18.39;52.09;98457.38;1679296;83;24303;-89
2021/06/01 09:37:36;;;;;;;;;;;;;;;18.37;51.66;98459.37;1713028;83;20298;-89
2021/06/01 09:40:10;;;;;;;;;;;;;;;18.30;51.20;98463.61;1714536;82;25140;-89
2021/06/01 09:42:47;;;;;;;;;;;;;;;18.23;50.89;98458.59;1713458;82;22832;-86
2021/06/01 09:45:14;;;;;;;;;;;;;;;18.20;50.51;98453.13;1711708;82;26892;-86
2021/06/01 09:47:42;;;;;;;;;;;;;;;18.15;49.95;98454.57;1711369;82;24502;-86
2021/06/01 09:50:20;;;;;;;;;;;;;;;18.11;49.53;98448.73;1713379;82;20396;-86
2021/06/01 09:52:45;;;;;;;;;;;;;;;18.20;49.26;98444.34;1718171;81;24454;-86
2021/06/01 09:55:15;;;;;;;;;;;;;;;18.21;48.86;98437.57;1710854;83;22057;-86
2021/06/01 09:57:48;;;;;;;;;;;;;;;18.26;48.55;98437.10;1713084;81;25400;-86
2021/06/01 10:00:16;;;;;;;;;;;;;;;18.20;48.21;98433.74;1711439;83;24381;-86
2021/06/01 10:02:43;;;;;;;;;;;;;;;18.19;47.87;98440.86;1711552;82;20289;-89
2021/06/01 10:05:14;;;;;;;;;;;;;;;18.13;47.38;98439.31;1708773;81;25046;-89
2021/06/01 10:07:41;;;;;;;;;;;;;;;18.16;47.17;98434.56;1708970;82;21986;-90
2021/06/01 10:10:17;;;;;;;;;;;;;;;18.38;47.22;98439.84;1715268;82;25938;-89
2021/06/01 10:12:45;;;;;;;;;;;;;;;18.48;47.00;98429.95;1709349;82;24433;-89
2021/06/01 10:15:12;;;;;;;;;;;;;;;18.33;46.45;98439.45;1711367;82;20274;-89
2021/06/01 10:17:38;;;;;;;;;;;;;;;18.28;46.20;98433.78;1712066;82;25180;-89
2021/06/01 10:20:04;;;;;;;;;;;;;;;18.24;45.95;98427.97;1711604;82;22047;-89
2021/06/01 10:22:30;;;;;;;;;;;;;;;18.23;45.76;98427.63;1716971;82;25904;-89
2021/06/01 10:24:56;;;;;;;;;;;;;;;18.19;45.51;98440.02;1719275;82;20333;-90
2021/06/01 10:27:23;;;;;;;;;;;;;;;18.18;45.37;98440.52;1689856;83;20559;-90
2021/06/01 10:29:49;;;;;;;;;;;;;;;18.19;45.23;98430.75;1722670;82;25087;-90
2021/06/01 10:32:18;;;;;;;;;;;;;;;18.21;45.08;98434.09;1729028;82;20404;-90
2021/06/01 10:34:45;;;;;;;;;;;;;;;18.38;45.20;98428.72;1712342;82;25955;-90
2021/06/01 10:43:04;;;;;;;;;;;;;;;18.56;44.80;98431.84;1723988;82;25101;-90
2021/06/01 10:50:54;;;;;;;;;;;;;;;18.64;44.28;98435.38;1705293;82;25362;-88
2021/06/01 10:53:25;;;;;;;;;;;;;;;18.61;44.10;98430.87;1711172;82;21012;-90
2021/06/01 10:55:58;;;;;;;;;;;;;;;18.62;44.03;98428.56;1705744;82;25564;-90
2021/06/01 10:58:37;;;;;;;;;;;;;;;18.56;43.90;98427.38;1703017;82;22131;-91
2021/06/01 11:04:29;;;;;;;;;;;;;;;18.45;43.61;98423.63;1689066;82;24636;-90
2021/06/01 11:06:56;;;;;;;;;;;;;;;18.66;43.73;98425.92;1679850;83;20343;-90
2021/06/01 11:09:33;;;;;;;;;;;;;;;18.77;43.72;98424.31;1677108;84;24961;-90
2021/06/01 11:12:01;;;;;;;;;;;;;;;18.87;43.70;98425.55;1682060;83;22534;-90
2021/06/01 11:14:33;;;;;;;;;;;;;;;18.80;43.41;98420.88;1717436;82;25989;-92
2021/06/01 11:17:00;;;;;;;;;;;;;;;18.67;43.17;98411.19;1711174;82;24478;-90
2021/06/01 11:19:43;;;;;;;;;;;;;;;18.80;43.19;98416.90;1709293;82;20635;-92
2021/06/01 11:22:34;;;;;;;;;;;;;;;18.85;43.07;98412.93;1642472;85;24915;-90
2021/06/01 11:33:29;;;;;;;;;;;;;;;18.96;42.76;98401.54;1682293;82;20591;-89
2021/06/01 11:35:59;;;;;;;;;;;;;;;19.04;42.74;98394.09;1714273;82;25879;-89
2021/06/01 11:38:37;;;;;;;;;;;;;;;19.06;42.69;98400.07;1710790;82;21982;-89
2021/06/01 11:43:31;;;;;;;;;;;;;;;18.97;42.41;98398.39;1651813;85;25015;-90
2021/06/01 11:50:55;;;;;;;;;;;;;;;18.71;42.03;98401.13;1652254;85;24980;-90
2021/06/01 11:51:12;;;;;;;;;;;;;;;18.57;41.83;98395.07;1643775;85;22221;-90
2021/06/01 11:53:49;;;;;;;;;;;;;;;18.61;41.84;98401.22;1717908;82;25955;-90
2021/06/01 11:56:42;;;;;;;;;;;;;;;18.61;41.66;98394.59;1714685;82;25221;-89
2021/06/01 12:05:04;;;;;;;;;;;;;;;19.18;41.84;98390.83;1714056;82;21990;-89
2021/06/01 12:18:42;;;;;;;;;;;;;;;19.63;41.33;98391.27;1656660;85;22045;-90
2021/06/01 12:21:28;;;;;;;;;;;;;;;19.65;41.18;98383.11;1664689;84;25933;-90
2021/06/01 12:24:05;;;;;;;;;;;;;;;19.59;40.97;98385.94;1654666;85;25292;-91
2021/06/01 12:32:11;;;;;;;;;;;;;;;19.91;40.83;98380.31;1662858;85;22031;-88
2021/06/01 13:13:57;;;;;;;;;;;;;;;20.29;39.79;98360.95;1691679;84;22769;-90
2021/06/01 13:21:52;;;;;;;;;;;;;;;20.40;39.54;98352.66;1703838;84;20300;-88
2021/06/01 13:32:30;;;;;;;;;;;;;;;20.54;39.55;98353.78;1643446;86;24545;-91
2021/06/01 13:40:39;;;;;;;;;;;;;;;20.61;39.40;98356.09;1668706;84;20260;-90
2021/06/01 13:46:02;;;;;;;;;;;;;;;20.53;39.33;98351.29;1694390;84;24467;-90
2021/06/01 13:56:19;;;;;;;;;;;;;;;20.65;39.22;98342.77;1694472;84;26079;-90
2021/06/01 14:01:25;;;;;;;;;;;;;;;20.49;39.02;98342.00;1700437;84;20178;-90
2021/06/01 14:09:48;;;;;;;;;;;;;;;20.42;38.82;98348.50;1667630;85;26056;-88
2021/06/01 14:29:39;;;;;;;;;;;;;;;20.64;38.86;98337.12;1663535;85;20317;-90
2021/06/01 14:37:14;;;;;;;;;;;;;;;21.23;38.46;98333.48;1663720;85;25936;-90
2021/06/01 15:54:07;;;;;;;;;;;;;;;19.05;36.83;98308.22;1704803;83;25707;-91
2021/06/01 16:43:52;;;;;;;;;;;;;;;18.85;37.00;98303.72;1705649;83;24544;-91
2021/06/01 17:05:58;;;;;;;;;;;;;;;18.46;38.80;98303.39;1707600;83;22000;-86
2021/06/01 17:11:15;;;;;;;;;;;;;;;18.59;39.45;98311.77;1698184;83;24550;-86
2021/06/01 17:13:46;;;;;;;;;;;;;;;18.60;39.74;98310.75;1691351;83;20293;-87
2021/06/01 17:16:19;;;;;;;;;;;;;;;18.59;39.93;98310.44;1691772;82;25069;-87
2021/06/01 17:24:28;;;;;;;;;;;;;;;18.50;40.55;98308.70;1686457;83;25353;-91
2021/06/01 17:30:40;;;;;;;;;;;;;;;18.48;41.02;98312.02;1635545;86;25062;-90
2021/06/01 17:32:20;;;;;;;;;;;;;;;18.44;41.24;98309.34;1683021;83;21991;-91
2021/06/01 17:34:55;;;;;;;;;;;;;;;18.39;41.40;98308.98;1693889;83;25980;-89
2021/06/01 17:37:17;;;;;;;;;;;;;;;18.34;41.58;98313.94;1689242;83;25166;-90
2021/06/01 17:39:43;;;;;;;;;;;;;;;18.25;41.78;98313.08;1669210;84;20275;-90
2021/06/01 17:42:13;;;;;;;;;;;;;;;18.21;42.03;98310.91;1663567;84;25525;-87
2021/06/01 17:44:53;;;;;;;;;;;;;;;18.16;42.20;98314.52;1664270;84;22042;-87
2021/06/01 17:47:26;;;;;;;;;;;;;;;18.10;42.37;98315.98;1646964;85;26727;-90
2021/06/01 17:49:53;;;;;;;;;;;;;;;18.04;42.51;98310.48;1651056;84;24680;-91
2021/06/01 17:52:28;;;;;;;;;;;;;;;17.92;42.58;98316.53;1655611;84;20593;-87
2021/06/01 17:54:59;;;;;;;;;;;;;;;17.80;42.69;98315.95;1650411;84;25251;-88
2021/06/01 17:57:27;;;;;;;;;;;;;;;17.61;42.82;98320.13;1651109;85;22096;-88
2021/06/01 17:59:55;;;;;;;;;;;;;;;17.58;43.02;98324.36;1670414;84;26131;-87
2021/06/01 18:02:22;;;;;;;;;;;;;;;17.54;43.23;98325.66;1636992;86;24331;-87
2021/06/01 18:04:52;;;;;;;;;;;;;;;17.54;43.46;98329.63;1667097;84;20267;-87
2021/06/01 18:07:29;;;;;;;;;;;;;;;17.51;43.66;98326.78;1679367;83;24978;-87
2021/06/01 18:41:01;;;;;;;;;;;;;;;16.44;45.71;98343.98;1679412;84;25483;-87
2021/06/01 18:51:14;;;;;;;;;;;;;;;16.37;45.84;98344.21;1684484;84;24695;-87
2021/06/01 19:02:39;;;;;;;;;;;;;;;15.83;46.64;98370.84;1693459;84;25726;-90
2021/06/01 19:24:47;;;;;;;;;;;;;;;14.94;47.91;98385.11;1789801;79;22020;-91
2021/06/01 19:52:08;;;;;;;;;;;;;;;15.32;49.59;98401.47;1790452;79;22029;-91
2021/06/01 19:54:39;;;;;;;;;;;;;;;15.24;49.70;98406.09;1798349;79;26022;-92
2021/06/01 19:57:14;;;;;;;;;;;;;;;15.18;49.78;98408.44;1788317;79;24474;-91